sensor_id;sensor_type;location;lat;lon;timestamp;pressure;altitude;pressure_sealevel;temperature;humidity
75788;BME280;64406;50.024;14.492;2023-09-19T00:01:08;97415.53;;;14.79;100.00
75788;BME280;64406;50.024;14.492;2023-09-19T00:03:39;97411.56;;;14.76;100.00
75788;BME280;64406;50.024;14.492;2023-09-19T00:06:07;97404.41;;;14.72;100.00
75788;BME280;64406;50.024;14.492;2023-09-19T00:08:36;97402.69;;;14.67;100.00
75788;BME280;64406;50.024;14.492;2023-09-19T00:11:02;97398.69;;;14.64;100.00
75788;BME280;64406;50.024;14.492;2023-09-19T00:13:29;97405.13;;;14.60;100.00
75788;BME280;64406;50.024;14.492;2023-09-19T00:15:56;97407.31;;;14.58;100.00
75788;BME280;64406;50.024;14.492;2023-09-19T00:18:24;97407.19;;;14.54;100.00
75788;BME280;64406;50.024;14.492;2023-09-19T00:20:59;97412.47;;;14.51;100.00
75788;BME280;64406;50.024;14.492;2023-09-19T00:23:25;97421.38;;;14.42;100.00
75788;BME280;64406;50.024;14.492;2023-09-19T00:25:51;97426.81;;;14.42;100.00
75788;BME280;64406;50.024;14.492;2023-09-19T00:28:17;97426.50;;;14.35;100.00
75788;BME280;64406;50.024;14.492;2023-09-19T00:30:45;97419.34;;;14.31;100.00
75788;BME280;64406;50.024;14.492;2023-09-19T00:33:21;97423.50;;;14.28;100.00
75788;BME280;64406;50.024;14.492;2023-09-19T00:35:51;97425.41;;;14.28;100.00
75788;BME280;64406;50.024;14.492;2023-09-19T00:38:17;97429.41;;;14.22;100.00
75788;BME280;64406;50.024;14.492;2023-09-19T00:40:45;97432.44;;;14.20;100.00
75788;BME280;64406;50.024;14.492;2023-09-19T00:43:13;97424.31;;;14.11;100.00
75788;BME280;64406;50.024;14.492;2023-09-19T00:45:42;97426.22;;;14.11;100.00
75788;BME280;64406;50.024;14.492;2023-09-19T00:48:08;97431.31;;;14.12;100.00
75788;BME280;64406;50.024;14.492;2023-09-19T00:50:35;97435.66;;;14.13;100.00
75788;BME280;64406;50.024;14.492;2023-09-19T00:53:02;97429.25;;;14.18;100.00
75788;BME280;64406;50.024;14.492;2023-09-19T00:55:36;97432.13;;;14.22;100.00
75788;BME280;64406;50.024;14.492;2023-09-19T00:58:03;97428.94;;;14.20;100.00
75788;BME280;64406;50.024;14.492;2023-09-19T01:00:33;97424.88;;;14.43;100.00
75788;BME280;64406;50.024;14.492;2023-09-19T01:03:02;97426.97;;;14.55;98.37
75788;BME280;64406;50.024;14.492;2023-09-19T01:05:29;97420.47;;;14.47;98.80
75788;BME280;64406;50.024;14.492;2023-09-19T01:07:55;97417.41;;;14.49;98.81
75788;BME280;64406;50.024;14.492;2023-09-19T01:10:21;97422.16;;;14.60;97.62
75788;BME280;64406;50.024;14.492;2023-09-19T01:12:51;97417.56;;;14.52;97.76
75788;BME280;64406;50.024;14.492;2023-09-19T01:18:20;97433.94;;;14.64;95.31
75788;BME280;64406;50.024;14.492;2023-09-19T01:26:14;97431.34;;;14.77;93.83
75788;BME280;64406;50.024;14.492;2023-09-19T01:31:49;97432.47;;;14.76;93.66
75788;BME280;64406;50.024;14.492;2023-09-19T01:34:16;97430.25;;;14.69;94.49
75788;BME280;64406;50.024;14.492;2023-09-19T01:36:43;97419.75;;;14.67;93.96
75788;BME280;64406;50.024;14.492;2023-09-19T01:39:11;97420.50;;;14.77;93.53
75788;BME280;64406;50.024;14.492;2023-09-19T01:41:51;97430.22;;;14.78;93.01
75788;BME280;64406;50.024;14.492;2023-09-19T01:44:48;97424.66;;;14.74;93.65
75788;BME280;64406;50.024;14.492;2023-09-19T01:47:28;97420.44;;;14.85;92.03
75788;BME280;64406;50.024;14.492;2023-09-19T01:52:45;97411.69;;;14.88;91.90
75788;BME280;64406;50.024;14.492;2023-09-19T01:55:14;97416.31;;;14.88;92.03
75788;BME280;64406;50.024;14.492;2023-09-19T01:57:49;97423.47;;;14.92;91.33
75788;BME280;64406;50.024;14.492;2023-09-19T02:00:18;97424.56;;;14.91;91.54
75788;BME280;64406;50.024;14.492;2023-09-19T02:02:47;97426.03;;;14.89;91.78
75788;BME280;64406;50.024;14.492;2023-09-19T02:05:13;97424.91;;;14.90;91.41
75788;BME280;64406;50.024;14.492;2023-09-19T02:07:47;97424.56;;;14.91;91.71
75788;BME280;64406;50.024;14.492;2023-09-19T02:10:13;97418.34;;;14.91;91.43
75788;BME280;64406;50.024;14.492;2023-09-19T02:12:39;97418.69;;;14.89;91.98
75788;BME280;64406;50.024;14.492;2023-09-19T02:15:05;97426.50;;;14.91;91.83
75788;BME280;64406;50.024;14.492;2023-09-19T02:17:33;97416.94;;;14.93;91.45
75788;BME280;64406;50.024;14.492;2023-09-19T02:19:58;97413.72;;;14.91;91.52
75788;BME280;64406;50.024;14.492;2023-09-19T02:22:29;97423.47;;;14.92;91.65
75788;BME280;64406;50.024;14.492;2023-09-19T02:24:55;97415.34;;;14.92;91.60
75788;BME280;64406;50.024;14.492;2023-09-19T02:27:24;97415.81;;;14.94;91.54
75788;BME280;64406;50.024;14.492;2023-09-19T02:29:49;97416.25;;;14.96;91.32
75788;BME280;64406;50.024;14.492;2023-09-19T02:32:15;97409.41;;;14.99;90.92
75788;BME280;64406;50.024;14.492;2023-09-19T02:34:43;97417.34;;;15.04;90.79
75788;BME280;64406;50.024;14.492;2023-09-19T02:37:10;97415.56;;;15.08;90.13
75788;BME280;64406;50.024;14.492;2023-09-19T02:39:35;97413.66;;;15.09;89.97
75788;BME280;64406;50.024;14.492;2023-09-19T02:42:01;97421.72;;;15.17;89.75
75788;BME280;64406;50.024;14.492;2023-09-19T02:44:29;97411.47;;;15.23;89.20
75788;BME280;64406;50.024;14.492;2023-09-19T02:46:55;97415.31;;;15.22;89.70
75788;BME280;64406;50.024;14.492;2023-09-19T02:49:22;97419.97;;;15.21;89.64
75788;BME280;64406;50.024;14.492;2023-09-19T02:51:48;97408.31;;;15.21;89.65
75788;BME280;64406;50.024;14.492;2023-09-19T02:54:13;97419.28;;;15.24;89.27
75788;BME280;64406;50.024;14.492;2023-09-19T02:56:41;97408.84;;;15.35;88.39
75788;BME280;64406;50.024;14.492;2023-09-19T02:59:07;97410.91;;;15.38;87.89
75788;BME280;64406;50.024;14.492;2023-09-19T03:01:33;97411.19;;;15.45;87.90
75788;BME280;64406;50.024;14.492;2023-09-19T03:03:59;97414.69;;;15.46;87.24
75788;BME280;64406;50.024;14.492;2023-09-19T03:06:25;97407.66;;;15.45;87.57
75788;BME280;64406;50.024;14.492;2023-09-19T03:08:50;97411.13;;;15.54;86.68
75788;BME280;64406;50.024;14.492;2023-09-19T03:11:17;97413.16;;;15.57;86.76
75788;BME280;64406;50.024;14.492;2023-09-19T03:13:51;97400.25;;;15.54;86.58
75788;BME280;64406;50.024;14.492;2023-09-19T03:16:17;97400.25;;;15.54;87.09
75788;BME280;64406;50.024;14.492;2023-09-19T03:18:42;97403.78;;;15.55;86.83
75788;BME280;64406;50.024;14.492;2023-09-19T03:21:08;97410.78;;;15.56;86.62
75788;BME280;64406;50.024;14.492;2023-09-19T03:23:33;97404.22;;;15.57;87.10
75788;BME280;64406;50.024;14.492;2023-09-19T03:25:59;97407.72;;;15.57;86.73
75788;BME280;64406;50.024;14.492;2023-09-19T03:28:25;97410.78;;;15.56;86.93
75788;BME280;64406;50.024;14.492;2023-09-19T03:31:01;97417.00;;;15.56;86.58
75788;BME280;64406;50.024;14.492;2023-09-19T03:33:27;97419.59;;;15.53;87.09
75788;BME280;64406;50.024;14.492;2023-09-19T03:35:53;97420.69;;;15.51;87.21
75788;BME280;64406;50.024;14.492;2023-09-19T03:38:20;97409.28;;;15.46;87.61
75788;BME280;64406;50.024;14.492;2023-09-19T03:40:47;97406.56;;;15.46;87.54
75788;BME280;64406;50.024;14.492;2023-09-19T03:43:14;97396.34;;;15.43;87.46
75788;BME280;64406;50.024;14.492;2023-09-19T03:45:40;97396.50;;;15.46;87.75
75788;BME280;64406;50.024;14.492;2023-09-19T03:48:09;97396.34;;;15.43;87.78
75788;BME280;64406;50.024;14.492;2023-09-19T03:50:36;97398.88;;;15.48;87.26
75788;BME280;64406;50.024;14.492;2023-09-19T03:53:01;97400.78;;;15.47;87.27
75788;BME280;64406;50.024;14.492;2023-09-19T03:55:28;97405.28;;;15.43;87.37
75788;BME280;64406;50.024;14.492;2023-09-19T03:57:55;97402.13;;;15.41;87.94
75788;BME280;64406;50.024;14.492;2023-09-19T04:00:22;97408.19;;;15.38;88.09
75788;BME280;64406;50.024;14.492;2023-09-19T04:02:51;97409.00;;;15.39;87.96
75788;BME280;64406;50.024;14.492;2023-09-19T04:05:18;97410.09;;;15.38;87.85
75788;BME280;64406;50.024;14.492;2023-09-19T04:07:44;97416.31;;;15.38;87.66
75788;BME280;64406;50.024;14.492;2023-09-19T04:10:09;97414.13;;;15.32;88.20
75788;BME280;64406;50.024;14.492;2023-09-19T04:12:37;97420.38;;;15.32;88.39
75788;BME280;64406;50.024;14.492;2023-09-19T04:15:05;97428.84;;;15.31;88.17
75788;BME280;64406;50.024;14.492;2023-09-19T04:17:32;97432.22;;;15.28;88.32
75788;BME280;64406;50.024;14.492;2023-09-19T04:20:00;97438.63;;;15.23;89.00
75788;BME280;64406;50.024;14.492;2023-09-19T04:22:26;97445.69;;;15.15;89.35
75788;BME280;64406;50.024;14.492;2023-09-19T04:24:52;97443.44;;;15.17;89.69
75788;BME280;64406;50.024;14.492;2023-09-19T04:27:17;97456.69;;;15.19;89.30
75788;BME280;64406;50.024;14.492;2023-09-19T04:29:44;97455.06;;;15.18;89.60
75788;BME280;64406;50.024;14.492;2023-09-19T04:32:10;97474.41;;;15.16;90.08
75788;BME280;64406;50.024;14.492;2023-09-19T04:34:36;97465.81;;;15.14;90.11
75788;BME280;64406;50.024;14.492;2023-09-19T04:37:03;97466.13;;;15.13;89.93
75788;BME280;64406;50.024;14.492;2023-09-19T04:39:29;97471.41;;;15.09;90.08
75788;BME280;64406;50.024;14.492;2023-09-19T04:41:55;97474.72;;;15.15;89.64
75788;BME280;64406;50.024;14.492;2023-09-19T04:44:21;97479.38;;;15.14;89.86
75788;BME280;64406;50.024;14.492;2023-09-19T04:46:47;97481.13;;;15.10;90.29
75788;BME280;64406;50.024;14.492;2023-09-19T04:49:13;97481.78;;;15.07;90.71
75788;BME280;64406;50.024;14.492;2023-09-19T04:51:39;97491.97;;;15.10;90.58
75788;BME280;64406;50.024;14.492;2023-09-19T04:54:05;97496.94;;;15.08;90.26
75788;BME280;64406;50.024;14.492;2023-09-19T04:56:32;97491.84;;;15.07;90.52
75788;BME280;64406;50.024;14.492;2023-09-19T04:59:00;97509.22;;;15.14;89.86
75788;BME280;64406;50.024;14.492;2023-09-19T05:01:26;97503.00;;;15.05;90.39
75788;BME280;64406;50.024;14.492;2023-09-19T05:03:52;97503.00;;;15.05;91.07
75788;BME280;64406;50.024;14.492;2023-09-19T05:06:19;97511.75;;;15.11;90.45
75788;BME280;64406;50.024;14.492;2023-09-19T05:08:47;97509.38;;;15.09;90.32
75788;BME280;64406;50.024;14.492;2023-09-19T05:11:17;97521.47;;;15.12;90.31
75788;BME280;64406;50.024;14.492;2023-09-19T05:13:43;97519.25;;;15.14;89.92
75788;BME280;64406;50.024;14.492;2023-09-19T05:16:09;97520.19;;;15.18;89.51
75788;BME280;64406;50.024;14.492;2023-09-19T05:18:36;97514.59;;;15.23;89.38
75788;BME280;64406;50.024;14.492;2023-09-19T05:21:04;97524.31;;;15.24;89.06
75788;BME280;64406;50.024;14.492;2023-09-19T05:23:30;97527.50;;;15.26;89.43
75788;BME280;64406;50.024;14.492;2023-09-19T05:25:56;97526.38;;;15.27;89.21
75788;BME280;64406;50.024;14.492;2023-09-19T05:28:24;97535.78;;;15.30;89.26
75788;BME280;64406;50.024;14.492;2023-09-19T05:30:50;97534.66;;;15.31;88.92
75788;BME280;64406;50.024;14.492;2023-09-19T05:33:17;97538.00;;;15.36;88.63
75788;BME280;64406;50.024;14.492;2023-09-19T05:36:25;97537.66;;;15.38;88.84
75788;BME280;64406;50.024;14.492;2023-09-19T05:38:50;97534.31;;;15.41;88.43
75788;BME280;64406;50.024;14.492;2023-09-19T05:41:16;97538.88;;;15.87;86.30
75788;BME280;64406;50.024;14.492;2023-09-19T05:43:50;97540.53;;;16.21;84.98
75788;BME280;64406;50.024;14.492;2023-09-19T05:46:16;97545.50;;;15.98;85.26
75788;BME280;64406;50.024;14.492;2023-09-19T05:48:42;97551.66;;;16.08;84.68
75788;BME280;64406;50.024;14.492;2023-09-19T05:51:11;97540.41;;;16.18;84.14
75788;BME280;64406;50.024;14.492;2023-09-19T05:53:36;97553.59;;;16.07;84.38
75788;BME280;64406;50.024;14.492;2023-09-19T05:56:05;97551.66;;;16.08;84.35
75788;BME280;64406;50.024;14.492;2023-09-19T05:58:34;97545.69;;;16.35;83.27
75788;BME280;64406;50.024;14.492;2023-09-19T06:01:00;97558.75;;;16.21;83.75
75788;BME280;64406;50.024;14.492;2023-09-19T06:03:26;97550.34;;;16.14;84.41
75788;BME280;64406;50.024;14.492;2023-09-19T06:05:51;97559.13;;;16.11;84.26
75788;BME280;64406;50.024;14.492;2023-09-19T06:08:18;97559.81;;;16.08;84.11
75788;BME280;64406;50.024;14.492;2023-09-19T06:10:44;97567.50;;;16.06;84.74
75788;BME280;64406;50.024;14.492;2023-09-19T06:13:12;97565.69;;;16.10;84.44
75788;BME280;64406;50.024;14.492;2023-09-19T06:15:37;97575.13;;;16.12;84.81
75788;BME280;64406;50.024;14.492;2023-09-19T06:18:03;97570.50;;;16.13;84.54
75788;BME280;64406;50.024;14.492;2023-09-19T06:20:30;97575.84;;;16.21;84.36
75788;BME280;64406;50.024;14.492;2023-09-19T06:22:57;97584.34;;;16.20;84.23
75788;BME280;64406;50.024;14.492;2023-09-19T06:25:22;97604.53;;;16.10;84.17
75788;BME280;64406;50.024;14.492;2023-09-19T06:27:49;97595.75;;;16.13;84.70
75788;BME280;64406;50.024;14.492;2023-09-19T06:30:17;97596.34;;;16.19;84.20
75788;BME280;64406;50.024;14.492;2023-09-19T06:32:44;97593.63;;;16.19;83.88
75788;BME280;64406;50.024;14.492;2023-09-19T06:35:14;97598.53;;;16.25;83.91
75788;BME280;64406;50.024;14.492;2023-09-19T06:37:42;97615.03;;;16.20;83.40
75788;BME280;64406;50.024;14.492;2023-09-19T06:40:12;97613.91;;;16.21;83.91
75788;BME280;64406;50.024;14.492;2023-09-19T06:42:45;97618.53;;;16.21;83.41
75788;BME280;64406;50.024;14.492;2023-09-19T06:45:12;97615.44;;;16.31;83.35
75788;BME280;64406;50.024;14.492;2023-09-19T06:47:39;97616.50;;;16.39;83.24
75788;BME280;64406;50.024;14.492;2023-09-19T06:50:05;97618.09;;;16.40;83.03
75788;BME280;64406;50.024;14.492;2023-09-19T06:52:35;97627.72;;;16.58;82.25
75788;BME280;64406;50.024;14.492;2023-09-19T06:55:00;97612.97;;;16.59;81.85
75788;BME280;64406;50.024;14.492;2023-09-19T06:57:28;97620.28;;;16.67;81.72
75788;BME280;64406;50.024;14.492;2023-09-19T06:59:56;97628.44;;;16.67;81.60
75788;BME280;64406;50.024;14.492;2023-09-19T07:02:22;97637.72;;;16.87;80.92
75788;BME280;64406;50.024;14.492;2023-09-19T07:04:47;97632.53;;;16.94;80.23
75788;BME280;64406;50.024;14.492;2023-09-19T07:07:13;97634.50;;;17.06;79.67
75788;BME280;64406;50.024;14.492;2023-09-19T07:09:39;97632.97;;;17.29;78.88
75788;BME280;64406;50.024;14.492;2023-09-19T07:12:05;97635.78;;;17.21;78.56
75788;BME280;64406;50.024;14.492;2023-09-19T07:14:31;97637.03;;;17.23;78.39
75788;BME280;64406;50.024;14.492;2023-09-19T07:16:57;97644.53;;;17.26;78.76
75788;BME280;64406;50.024;14.492;2023-09-19T07:19:26;97646.22;;;17.19;78.57
75788;BME280;64406;50.024;14.492;2023-09-19T07:21:53;97642.31;;;17.40;78.03
75788;BME280;64406;50.024;14.492;2023-09-19T07:24:19;97643.41;;;17.27;78.20
75788;BME280;64406;50.024;14.492;2023-09-19T07:26:47;97643.63;;;17.22;78.20
75788;BME280;64406;50.024;14.492;2023-09-19T07:29:13;97650.94;;;17.55;77.05
75788;BME280;64406;50.024;14.492;2023-09-19T07:31:39;97648.59;;;17.20;77.01
75788;BME280;64406;50.024;14.492;2023-09-19T07:34:05;97643.75;;;17.26;77.33
75788;BME280;64406;50.024;14.492;2023-09-19T07:36:34;97645.03;;;17.40;77.77
75788;BME280;64406;50.024;14.492;2023-09-19T07:38:59;97651.94;;;17.38;76.98
75788;BME280;64406;50.024;14.492;2023-09-19T07:41:25;97654.81;;;17.54;76.31
75788;BME280;64406;50.024;14.492;2023-09-19T07:43:51;97673.72;;;17.83;76.08
75788;BME280;64406;50.024;14.492;2023-09-19T07:46:17;97667.06;;;17.60;76.30
75788;BME280;64406;50.024;14.492;2023-09-19T07:48:44;97659.06;;;17.76;76.25
75788;BME280;64406;50.024;14.492;2023-09-19T07:51:13;97677.88;;;17.68;75.62
75788;BME280;64406;50.024;14.492;2023-09-19T07:53:39;97666.97;;;17.68;75.86
75788;BME280;64406;50.024;14.492;2023-09-19T07:56:07;97668.16;;;17.80;75.02
75788;BME280;64406;50.024;14.492;2023-09-19T07:58:34;97662.84;;;17.83;74.67
75788;BME280;64406;50.024;14.492;2023-09-19T08:01:08;97664.31;;;17.93;74.05
75788;BME280;64406;50.024;14.492;2023-09-19T08:03:34;97675.00;;;18.23;73.61
75788;BME280;64406;50.024;14.492;2023-09-19T08:06:01;97677.25;;;17.84;73.24
75788;BME280;64406;50.024;14.492;2023-09-19T08:08:27;97676.47;;;17.83;73.71
75788;BME280;64406;50.024;14.492;2023-09-19T08:10:54;97673.50;;;18.01;73.86
75788;BME280;64406;50.024;14.492;2023-09-19T08:13:23;97678.00;;;18.45;72.15
75788;BME280;64406;50.024;14.492;2023-09-19T08:15:50;97678.59;;;18.27;71.46
75788;BME280;64406;50.024;14.492;2023-09-19T08:18:16;97679.81;;;18.54;71.14
75788;BME280;64406;50.024;14.492;2023-09-19T08:20:43;97683.25;;;18.38;71.11
75788;BME280;64406;50.024;14.492;2023-09-19T08:23:09;97683.59;;;18.49;69.46
75788;BME280;64406;50.024;14.492;2023-09-19T08:25:35;97693.31;;;18.74;69.50
75788;BME280;64406;50.024;14.492;2023-09-19T08:28:03;97700.28;;;18.72;69.58
75788;BME280;64406;50.024;14.492;2023-09-19T08:30:31;97701.44;;;18.99;68.75
75788;BME280;64406;50.024;14.492;2023-09-19T08:32:59;97692.03;;;19.24;68.09
75788;BME280;64406;50.024;14.492;2023-09-19T08:35:26;97702.69;;;19.01;69.20
75788;BME280;64406;50.024;14.492;2023-09-19T08:37:52;97699.84;;;18.45;69.46
75788;BME280;64406;50.024;14.492;2023-09-19T08:40:18;97708.16;;;18.37;69.35
75788;BME280;64406;50.024;14.492;2023-09-19T08:42:48;97704.97;;;18.23;70.13
75788;BME280;64406;50.024;14.492;2023-09-19T08:45:17;97713.81;;;18.19;69.70
75788;BME280;64406;50.024;14.492;2023-09-19T08:48:25;97704.25;;;18.62;69.25
75788;BME280;64406;50.024;14.492;2023-09-19T08:51:21;97715.06;;;18.71;67.74
75788;BME280;64406;50.024;14.492;2023-09-19T08:54:06;97714.56;;;18.81;68.00
75788;BME280;64406;50.024;14.492;2023-09-19T08:56:33;97726.16;;;18.66;68.30
75788;BME280;64406;50.024;14.492;2023-09-19T08:59:05;97721.72;;;18.86;67.16
75788;BME280;64406;50.024;14.492;2023-09-19T09:01:33;97726.06;;;18.62;67.30
75788;BME280;64406;50.024;14.492;2023-09-19T09:04:01;97728.38;;;19.00;66.94
75788;BME280;64406;50.024;14.492;2023-09-19T09:06:29;97722.97;;;18.88;66.60
75788;BME280;64406;50.024;14.492;2023-09-19T09:08:55;97725.53;;;19.09;66.55
75788;BME280;64406;50.024;14.492;2023-09-19T09:11:21;97727.47;;;19.09;66.30
75788;BME280;64406;50.024;14.492;2023-09-19T09:13:50;97729.75;;;19.35;65.10
75788;BME280;64406;50.024;14.492;2023-09-19T09:16:16;97732.22;;;19.12;65.79
75788;BME280;64406;50.024;14.492;2023-09-19T09:18:45;97725.59;;;19.25;65.35
75788;BME280;64406;50.024;14.492;2023-09-19T09:21:11;97738.31;;;19.61;64.57
75788;BME280;64406;50.024;14.492;2023-09-19T09:23:41;97726.16;;;19.46;64.10
75788;BME280;64406;50.024;14.492;2023-09-19T09:26:07;97721.50;;;19.91;63.60
75788;BME280;64406;50.024;14.492;2023-09-19T09:28:35;97717.25;;;20.41;61.56
75788;BME280;64406;50.024;14.492;2023-09-19T09:31:04;97722.28;;;20.23;61.98
75788;BME280;64406;50.024;14.492;2023-09-19T09:33:37;97732.88;;;19.93;61.82
75788;BME280;64406;50.024;14.492;2023-09-19T09:36:05;97724.84;;;19.84;61.21
75788;BME280;64406;50.024;14.492;2023-09-19T09:38:50;97725.66;;;20.83;59.39
75788;BME280;64406;50.024;14.492;2023-09-19T09:41:16;97722.56;;;20.18;59.37
75788;BME280;64406;50.024;14.492;2023-09-19T09:43:55;97733.41;;;20.46;59.77
75788;BME280;64406;50.024;14.492;2023-09-19T09:46:21;97717.44;;;20.83;59.08
75788;BME280;64406;50.024;14.492;2023-09-19T09:49:03;97725.66;;;20.48;58.20
75788;BME280;64406;50.024;14.492;2023-09-19T09:51:59;97698.56;;;20.11;59.81
75788;BME280;64406;50.024;14.492;2023-09-19T09:55:00;97722.16;;;20.67;60.44
75788;BME280;64406;50.024;14.492;2023-09-19T09:57:31;97724.94;;;20.03;60.03
75788;BME280;64406;50.024;14.492;2023-09-19T09:59:58;97706.66;;;20.39;59.87
75788;BME280;64406;50.024;14.492;2023-09-19T10:02:35;97712.19;;;20.58;59.08
75788;BME280;64406;50.024;14.492;2023-09-19T10:05:17;97708.00;;;20.29;59.77
75788;BME280;64406;50.024;14.492;2023-09-19T10:07:47;97707.59;;;20.62;56.32
75788;BME280;64406;50.024;14.492;2023-09-19T10:10:33;97713.28;;;20.54;56.74
75788;BME280;64406;50.024;14.492;2023-09-19T10:13:13;97713.78;;;20.59;57.79
75788;BME280;64406;50.024;14.492;2023-09-19T10:15:50;97731.22;;;20.04;58.17
75788;BME280;64406;50.024;14.492;2023-09-19T10:18:23;97715.28;;;20.57;57.56
75788;BME280;64406;50.024;14.492;2023-09-19T10:20:49;97726.06;;;20.85;57.41
75788;BME280;64406;50.024;14.492;2023-09-19T10:23:20;97722.53;;;20.84;56.46
75788;BME280;64406;50.024;14.492;2023-09-19T10:25:49;97730.56;;;21.51;56.00
75788;BME280;64406;50.024;14.492;2023-09-19T10:28:17;97732.34;;;21.40;56.04
75788;BME280;64406;50.024;14.492;2023-09-19T10:30:51;97733.28;;;21.28;56.15
75788;BME280;64406;50.024;14.492;2023-09-19T10:33:19;97749.75;;;20.93;55.07
75788;BME280;64406;50.024;14.492;2023-09-19T10:35:48;97736.66;;;20.67;55.31
75788;BME280;64406;50.024;14.492;2023-09-19T10:38:23;97740.66;;;20.73;55.46
75788;BME280;64406;50.024;14.492;2023-09-19T10:40:51;97729.19;;;21.03;55.51
75788;BME280;64406;50.024;14.492;2023-09-19T10:43:25;97733.34;;;20.77;55.57
75788;BME280;64406;50.024;14.492;2023-09-19T10:45:54;97728.72;;;20.62;56.43
75788;BME280;64406;50.024;14.492;2023-09-19T10:48:25;97725.28;;;20.84;55.53
75788;BME280;64406;50.024;14.492;2023-09-19T10:53:26;97729.31;;;20.90;56.04
75788;BME280;64406;50.024;14.492;2023-09-19T10:55:59;97728.03;;;20.84;53.91
75788;BME280;64406;50.024;14.492;2023-09-19T10:58:31;97722.47;;;20.81;55.17
75788;BME280;64406;50.024;14.492;2023-09-19T11:01:00;97719.63;;;20.93;56.14
75788;BME280;64406;50.024;14.492;2023-09-19T11:03:32;97724.50;;;20.84;57.44
75788;BME280;64406;50.024;14.492;2023-09-19T11:06:23;97727.13;;;20.61;57.85
75788;BME280;64406;50.024;14.492;2023-09-19T11:08:59;97733.03;;;20.63;58.52
75788;BME280;64406;50.024;14.492;2023-09-19T11:12:09;97728.81;;;20.34;58.52
75788;BME280;64406;50.024;14.492;2023-09-19T11:14:39;97713.47;;;20.45;59.07
75788;BME280;64406;50.024;14.492;2023-09-19T11:30:33;97711.34;;;21.70;51.64
75788;BME280;64406;50.024;14.492;2023-09-19T11:36:14;97715.88;;;21.21;52.13
75788;BME280;64406;50.024;14.492;2023-09-19T11:38:57;97721.88;;;21.26;51.03
75788;BME280;64406;50.024;14.492;2023-09-19T11:46:30;97719.28;;;21.76;46.71
75788;BME280;64406;50.024;14.492;2023-09-19T11:49:08;97724.91;;;21.40;47.17
75788;BME280;64406;50.024;14.492;2023-09-19T11:51:43;97712.84;;;21.45;45.88
75788;BME280;64406;50.024;14.492;2023-09-19T11:54:16;97704.66;;;21.68;46.03
75788;BME280;64406;50.024;14.492;2023-09-19T11:56:52;97702.22;;;21.24;47.27
75788;BME280;64406;50.024;14.492;2023-09-19T11:59:30;97719.78;;;21.20;46.73
75788;BME280;64406;50.024;14.492;2023-09-19T12:01:57;97725.41;;;21.27;46.47
75788;BME280;64406;50.024;14.492;2023-09-19T12:04:37;97709.34;;;21.90;45.72
75788;BME280;64406;50.024;14.492;2023-09-19T12:07:13;97718.66;;;21.63;45.54
75788;BME280;64406;50.024;14.492;2023-09-19T12:09:51;97728.00;;;21.81;45.17
75788;BME280;64406;50.024;14.492;2023-09-19T12:12:27;97716.19;;;21.77;44.25
75788;BME280;64406;50.024;14.492;2023-09-19T12:14:54;97711.06;;;21.98;44.00
75788;BME280;64406;50.024;14.492;2023-09-19T12:17:21;97715.59;;;22.60;43.71
75788;BME280;64406;50.024;14.492;2023-09-19T12:19:53;97709.88;;;22.19;42.44
75788;BME280;64406;50.024;14.492;2023-09-19T12:22:19;97725.09;;;22.39;42.34
75788;BME280;64406;50.024;14.492;2023-09-19T12:24:48;97721.00;;;22.07;42.66
75788;BME280;64406;50.024;14.492;2023-09-19T12:27:15;97723.94;;;22.17;43.61
75788;BME280;64406;50.024;14.492;2023-09-19T12:29:46;97708.06;;;21.84;43.67
75788;BME280;64406;50.024;14.492;2023-09-19T12:38:28;97713.53;;;22.27;42.32
75788;BME280;64406;50.024;14.492;2023-09-19T12:40:58;97706.59;;;22.36;42.25
75788;BME280;64406;50.024;14.492;2023-09-19T12:43:26;97715.91;;;22.55;43.33
75788;BME280;64406;50.024;14.492;2023-09-19T12:45:52;97714.97;;;21.75;44.07
75788;BME280;64406;50.024;14.492;2023-09-19T12:48:26;97710.53;;;21.89;43.52
75788;BME280;64406;50.024;14.492;2023-09-19T12:51:04;97708.56;;;22.36;42.72
75788;BME280;64406;50.024;14.492;2023-09-19T12:53:46;97706.28;;;23.24;42.25
75788;BME280;64406;50.024;14.492;2023-09-19T12:56:17;97695.59;;;25.07;38.92
75788;BME280;64406;50.024;14.492;2023-09-19T13:01:18;97712.25;;;22.73;42.30
75788;BME280;64406;50.024;14.492;2023-09-19T13:03:44;97701.50;;;25.06;37.19
75788;BME280;64406;50.024;14.492;2023-09-19T13:06:10;97701.09;;;25.04;38.55
75788;BME280;64406;50.024;14.492;2023-09-19T13:08:40;97702.19;;;26.18;34.93
75788;BME280;64406;50.024;14.492;2023-09-19T13:11:16;97699.59;;;28.49;30.97
75788;BME280;64406;50.024;14.492;2023-09-19T13:13:49;97691.91;;;27.60;32.42
75788;BME280;64406;50.024;14.492;2023-09-19T13:16:20;97688.84;;;24.98;37.16
75788;BME280;64406;50.024;14.492;2023-09-19T13:18:50;97692.22;;;25.60;34.40
75788;BME280;64406;50.024;14.492;2023-09-19T13:21:20;97688.59;;;25.28;35.16
75788;BME280;64406;50.024;14.492;2023-09-19T13:26:49;97679.81;;;25.01;34.02
75788;BME280;64406;50.024;14.492;2023-09-19T13:29:26;97681.66;;;24.75;35.02
75788;BME280;64406;50.024;14.492;2023-09-19T13:31:52;97684.41;;;24.20;36.86
75788;BME280;64406;50.024;14.492;2023-09-19T13:34:37;97674.19;;;24.21;36.71
75788;BME280;64406;50.024;14.492;2023-09-19T13:37:11;97683.22;;;25.88;32.28
75788;BME280;64406;50.024;14.492;2023-09-19T13:39:57;97681.28;;;26.42;31.54
75788;BME280;64406;50.024;14.492;2023-09-19T13:42:28;97679.28;;;26.57;31.10
75788;BME280;64406;50.024;14.492;2023-09-19T13:45:02;97683.22;;;26.56;30.38
75788;BME280;64406;50.024;14.492;2023-09-19T13:47:52;97691.13;;;25.86;31.02
75788;BME280;64406;50.024;14.492;2023-09-19T13:51:35;97672.13;;;26.74;30.79
75788;BME280;64406;50.024;14.492;2023-09-19T13:55:23;97690.69;;;26.66;29.94